sensor_id;sensor_type;location;lat;lon;timestamp;P1;durP1;ratioP1;P2;durP2;ratioP2
3563;SDS011;1796;52.388;13.096;2023-02-24T00:01:51;83.40;;;21.40;;
3563;SDS011;1796;52.388;13.096;2023-02-24T00:04:24;80.77;;;19.43;;
3563;SDS011;1796;52.388;13.096;2023-02-24T00:06:51;86.63;;;21.03;;
3563;SDS011;1796;52.388;13.096;2023-02-24T00:09:20;79.30;;;21.03;;
3563;SDS011;1796;52.388;13.096;2023-02-24T00:11:54;71.97;;;21.10;;
3563;SDS011;1796;52.388;13.096;2023-02-24T00:14:23;86.10;;;20.10;;
3563;SDS011;1796;52.388;13.096;2023-02-24T00:16:52;70.73;;;20.83;;
3563;SDS011;1796;52.388;13.096;2023-02-24T00:19:20;71.60;;;20.80;;
3563;SDS011;1796;52.388;13.096;2023-02-24T00:21:48;74.03;;;20.20;;
3563;SDS011;1796;52.388;13.096;2023-02-24T00:24:16;75.07;;;19.50;;
3563;SDS011;1796;52.388;13.096;2023-02-24T00:26:44;81.83;;;18.77;;
3563;SDS011;1796;52.388;13.096;2023-02-24T00:29:13;93.23;;;21.57;;
3563;SDS011;1796;52.388;13.096;2023-02-24T00:31:40;73.83;;;19.80;;
3563;SDS011;1796;52.388;13.096;2023-02-24T00:34:07;73.43;;;19.27;;
3563;SDS011;1796;52.388;13.096;2023-02-24T00:36:36;89.63;;;20.20;;
3563;SDS011;1796;52.388;13.096;2023-02-24T00:39:04;86.37;;;20.37;;
3563;SDS011;1796;52.388;13.096;2023-02-24T00:41:33;68.80;;;19.10;;
3563;SDS011;1796;52.388;13.096;2023-02-24T00:44:03;79.57;;;20.87;;
3563;SDS011;1796;52.388;13.096;2023-02-24T00:46:34;70.50;;;19.50;;
3563;SDS011;1796;52.388;13.096;2023-02-24T00:49:02;72.50;;;19.33;;
3563;SDS011;1796;52.388;13.096;2023-02-24T00:51:31;64.83;;;16.30;;
3563;SDS011;1796;52.388;13.096;2023-02-24T00:54:01;49.00;;;14.00;;
3563;SDS011;1796;52.388;13.096;2023-02-24T00:56:29;43.93;;;11.80;;
3563;SDS011;1796;52.388;13.096;2023-02-24T00:58:57;43.93;;;9.90;;
3563;SDS011;1796;52.388;13.096;2023-02-24T01:01:27;39.37;;;9.37;;
3563;SDS011;1796;52.388;13.096;2023-02-24T01:03:57;41.83;;;10.93;;
3563;SDS011;1796;52.388;13.096;2023-02-24T01:06:25;38.00;;;9.10;;
3563;SDS011;1796;52.388;13.096;2023-02-24T01:08:54;35.90;;;8.80;;
3563;SDS011;1796;52.388;13.096;2023-02-24T01:11:23;33.63;;;8.47;;
3563;SDS011;1796;52.388;13.096;2023-02-24T01:14:09;22.70;;;7.00;;
3563;SDS011;1796;52.388;13.096;2023-02-24T01:16:39;20.23;;;6.53;;
3563;SDS011;1796;52.388;13.096;2023-02-24T01:19:08;32.97;;;7.77;;
3563;SDS011;1796;52.388;13.096;2023-02-24T01:21:36;23.60;;;6.00;;
3563;SDS011;1796;52.388;13.096;2023-02-24T01:24:04;30.53;;;5.63;;
3563;SDS011;1796;52.388;13.096;2023-02-24T01:26:31;27.77;;;6.83;;
3563;SDS011;1796;52.388;13.096;2023-02-24T01:28:58;21.13;;;5.20;;
3563;SDS011;1796;52.388;13.096;2023-02-24T01:31:25;32.07;;;5.97;;
3563;SDS011;1796;52.388;13.096;2023-02-24T01:33:54;28.43;;;6.07;;
3563;SDS011;1796;52.388;13.096;2023-02-24T01:36:22;31.83;;;4.73;;
3563;SDS011;1796;52.388;13.096;2023-02-24T01:38:50;22.73;;;4.90;;
3563;SDS011;1796;52.388;13.096;2023-02-24T01:41:19;18.23;;;4.17;;
3563;SDS011;1796;52.388;13.096;2023-02-24T01:44:00;22.97;;;4.30;;
3563;SDS011;1796;52.388;13.096;2023-02-24T01:46:34;20.83;;;5.03;;
3563;SDS011;1796;52.388;13.096;2023-02-24T01:49:05;16.73;;;3.70;;
3563;SDS011;1796;52.388;13.096;2023-02-24T01:51:36;14.17;;;3.20;;
3563;SDS011;1796;52.388;13.096;2023-02-24T01:54:06;22.43;;;3.27;;
3563;SDS011;1796;52.388;13.096;2023-02-24T01:56:37;18.07;;;3.17;;
3563;SDS011;1796;52.388;13.096;2023-02-24T01:59:06;17.90;;;3.40;;
3563;SDS011;1796;52.388;13.096;2023-02-24T02:01:34;25.00;;;4.20;;
3563;SDS011;1796;52.388;13.096;2023-02-24T02:04:06;18.07;;;3.50;;
3563;SDS011;1796;52.388;13.096;2023-02-24T02:06:42;9.93;;;2.60;;
3563;SDS011;1796;52.388;13.096;2023-02-24T02:09:10;26.10;;;3.20;;
3563;SDS011;1796;52.388;13.096;2023-02-24T02:11:39;12.80;;;2.60;;
3563;SDS011;1796;52.388;13.096;2023-02-24T02:14:06;19.57;;;2.97;;
3563;SDS011;1796;52.388;13.096;2023-02-24T02:16:40;7.73;;;2.50;;
3563;SDS011;1796;52.388;13.096;2023-02-24T02:22:27;23.53;;;2.70;;
3563;SDS011;1796;52.388;13.096;2023-02-24T02:25:15;23.87;;;2.60;;
3563;SDS011;1796;52.388;13.096;2023-02-24T02:27:57;17.00;;;3.63;;
3563;SDS011;1796;52.388;13.096;2023-02-24T02:31:02;28.63;;;3.37;;
3563;SDS011;1796;52.388;13.096;2023-02-24T02:33:58;16.03;;;3.13;;
3563;SDS011;1796;52.388;13.096;2023-02-24T02:36:35;19.00;;;2.80;;
3563;SDS011;1796;52.388;13.096;2023-02-24T02:39:10;20.20;;;4.60;;
3563;SDS011;1796;52.388;13.096;2023-02-24T02:41:45;15.37;;;3.30;;
3563;SDS011;1796;52.388;13.096;2023-02-24T02:44:18;17.40;;;2.40;;
3563;SDS011;1796;52.388;13.096;2023-02-24T02:46:51;15.50;;;2.40;;
3563;SDS011;1796;52.388;13.096;2023-02-24T02:49:25;8.20;;;2.90;;
3563;SDS011;1796;52.388;13.096;2023-02-24T02:51:57;12.30;;;3.00;;
3563;SDS011;1796;52.388;13.096;2023-02-24T02:54:32;13.03;;;3.23;;
3563;SDS011;1796;52.388;13.096;2023-02-24T02:57:06;21.00;;;2.60;;
3563;SDS011;1796;52.388;13.096;2023-02-24T02:59:39;21.33;;;2.77;;
3563;SDS011;1796;52.388;13.096;2023-02-24T03:02:13;22.93;;;2.83;;
3563;SDS011;1796;52.388;13.096;2023-02-24T03:04:47;18.83;;;2.33;;
3563;SDS011;1796;52.388;13.096;2023-02-24T03:07:18;11.70;;;2.03;;
3563;SDS011;1796;52.388;13.096;2023-02-24T03:09:49;15.70;;;3.10;;
3563;SDS011;1796;52.388;13.096;2023-02-24T03:12:20;17.70;;;2.27;;
3563;SDS011;1796;52.388;13.096;2023-02-24T03:14:50;10.93;;;1.77;;
3563;SDS011;1796;52.388;13.096;2023-02-24T03:17:23;5.80;;;2.50;;
3563;SDS011;1796;52.388;13.096;2023-02-24T03:19:54;11.20;;;1.87;;
3563;SDS011;1796;52.388;13.096;2023-02-24T03:22:28;13.83;;;2.10;;
3563;SDS011;1796;52.388;13.096;2023-02-24T03:25:01;12.60;;;2.90;;
3563;SDS011;1796;52.388;13.096;2023-02-24T03:27:30;18.83;;;2.43;;
3563;SDS011;1796;52.388;13.096;2023-02-24T03:30:05;13.43;;;2.57;;
3563;SDS011;1796;52.388;13.096;2023-02-24T03:32:36;13.27;;;2.77;;
3563;SDS011;1796;52.388;13.096;2023-02-24T03:35:10;17.77;;;2.37;;
3563;SDS011;1796;52.388;13.096;2023-02-24T03:37:42;12.43;;;2.00;;
3563;SDS011;1796;52.388;13.096;2023-02-24T03:40:11;15.87;;;3.10;;
3563;SDS011;1796;52.388;13.096;2023-02-24T03:42:41;15.63;;;2.13;;
3563;SDS011;1796;52.388;13.096;2023-02-24T03:45:11;5.80;;;2.67;;
3563;SDS011;1796;52.388;13.096;2023-02-24T03:47:40;10.13;;;2.43;;
3563;SDS011;1796;52.388;13.096;2023-02-24T03:50:13;19.27;;;2.10;;
3563;SDS011;1796;52.388;13.096;2023-02-24T03:52:42;16.37;;;2.77;;
3563;SDS011;1796;52.388;13.096;2023-02-24T03:55:15;9.83;;;2.60;;
3563;SDS011;1796;52.388;13.096;2023-02-24T03:57:55;13.17;;;2.40;;
3563;SDS011;1796;52.388;13.096;2023-02-24T04:00:32;7.60;;;1.63;;
3563;SDS011;1796;52.388;13.096;2023-02-24T04:03:13;9.97;;;2.13;;
3563;SDS011;1796;52.388;13.096;2023-02-24T04:05:50;8.43;;;2.27;;
3563;SDS011;1796;52.388;13.096;2023-02-24T04:08:29;9.50;;;2.03;;
3563;SDS011;1796;52.388;13.096;2023-02-24T04:11:03;11.57;;;2.10;;
3563;SDS011;1796;52.388;13.096;2023-02-24T04:13:38;15.13;;;1.87;;
3563;SDS011;1796;52.388;13.096;2023-02-24T04:16:10;12.80;;;1.97;;
3563;SDS011;1796;52.388;13.096;2023-02-24T04:18:43;9.73;;;2.10;;
3563;SDS011;1796;52.388;13.096;2023-02-24T04:21:16;11.17;;;2.97;;
3563;SDS011;1796;52.388;13.096;2023-02-24T04:23:47;24.07;;;1.87;;
3563;SDS011;1796;52.388;13.096;2023-02-24T04:26:14;9.80;;;2.17;;
3563;SDS011;1796;52.388;13.096;2023-02-24T04:28:42;13.47;;;1.80;;
3563;SDS011;1796;52.388;13.096;2023-02-24T04:31:12;14.93;;;2.33;;
3563;SDS011;1796;52.388;13.096;2023-02-24T04:33:42;9.40;;;2.70;;
3563;SDS011;1796;52.388;13.096;2023-02-24T04:36:14;13.53;;;1.93;;
3563;SDS011;1796;52.388;13.096;2023-02-24T04:38:43;15.57;;;2.57;;
3563;SDS011;1796;52.388;13.096;2023-02-24T04:41:11;12.37;;;2.20;;
3563;SDS011;1796;52.388;13.096;2023-02-24T04:43:42;12.13;;;2.27;;
3563;SDS011;1796;52.388;13.096;2023-02-24T04:46:09;9.70;;;1.80;;
3563;SDS011;1796;52.388;13.096;2023-02-24T04:48:37;8.63;;;2.10;;
3563;SDS011;1796;52.388;13.096;2023-02-24T04:51:04;7.63;;;1.80;;
3563;SDS011;1796;52.388;13.096;2023-02-24T04:53:32;8.43;;;3.00;;
3563;SDS011;1796;52.388;13.096;2023-02-24T04:56:02;9.50;;;2.30;;
3563;SDS011;1796;52.388;13.096;2023-02-24T04:58:33;4.87;;;2.00;;
3563;SDS011;1796;52.388;13.096;2023-02-24T05:01:04;11.60;;;2.07;;
3563;SDS011;1796;52.388;13.096;2023-02-24T05:03:34;9.20;;;1.37;;
3563;SDS011;1796;52.388;13.096;2023-02-24T05:06:01;9.80;;;2.17;;
3563;SDS011;1796;52.388;13.096;2023-02-24T05:08:30;11.60;;;1.83;;
3563;SDS011;1796;52.388;13.096;2023-02-24T05:10:59;9.40;;;2.07;;
3563;SDS011;1796;52.388;13.096;2023-02-24T05:13:28;9.40;;;1.70;;
3563;SDS011;1796;52.388;13.096;2023-02-24T05:15:56;11.13;;;1.57;;
3563;SDS011;1796;52.388;13.096;2023-02-24T05:18:24;4.53;;;1.10;;
3563;SDS011;1796;52.388;13.096;2023-02-24T05:20:56;8.80;;;1.80;;
3563;SDS011;1796;52.388;13.096;2023-02-24T05:23:42;6.17;;;1.50;;
3563;SDS011;1796;52.388;13.096;2023-02-24T05:26:12;8.80;;;1.83;;
3563;SDS011;1796;52.388;13.096;2023-02-24T05:28:42;17.50;;;2.03;;
3563;SDS011;1796;52.388;13.096;2023-02-24T05:31:13;7.27;;;1.17;;
3563;SDS011;1796;52.388;13.096;2023-02-24T05:33:42;10.80;;;1.73;;
3563;SDS011;1796;52.388;13.096;2023-02-24T05:36:11;10.00;;;1.80;;
3563;SDS011;1796;52.388;13.096;2023-02-24T05:38:42;16.87;;;1.80;;
3563;SDS011;1796;52.388;13.096;2023-02-24T05:41:10;7.73;;;1.43;;
3563;SDS011;1796;52.388;13.096;2023-02-24T05:43:41;10.10;;;3.93;;
3563;SDS011;1796;52.388;13.096;2023-02-24T05:46:12;7.43;;;2.20;;
3563;SDS011;1796;52.388;13.096;2023-02-24T05:48:39;2.80;;;1.20;;
3563;SDS011;1796;52.388;13.096;2023-02-24T05:51:06;10.20;;;1.60;;
3563;SDS011;1796;52.388;13.096;2023-02-24T05:53:36;11.73;;;2.00;;
3563;SDS011;1796;52.388;13.096;2023-02-24T05:56:06;12.70;;;1.50;;
3563;SDS011;1796;52.388;13.096;2023-02-24T05:58:34;7.67;;;1.80;;
3563;SDS011;1796;52.388;13.096;2023-02-24T06:01:08;12.33;;;1.90;;
3563;SDS011;1796;52.388;13.096;2023-02-24T06:03:40;7.80;;;2.27;;
3563;SDS011;1796;52.388;13.096;2023-02-24T06:06:10;8.63;;;1.83;;
3563;SDS011;1796;52.388;13.096;2023-02-24T06:08:37;5.73;;;1.53;;
3563;SDS011;1796;52.388;13.096;2023-02-24T06:11:14;4.47;;;1.60;;
3563;SDS011;1796;52.388;13.096;2023-02-24T06:13:43;10.17;;;1.60;;
3563;SDS011;1796;52.388;13.096;2023-02-24T06:16:12;7.13;;;1.90;;
3563;SDS011;1796;52.388;13.096;2023-02-24T06:18:39;11.87;;;2.00;;
3563;SDS011;1796;52.388;13.096;2023-02-24T06:21:06;10.80;;;1.83;;
3563;SDS011;1796;52.388;13.096;2023-02-24T06:23:36;13.33;;;2.20;;
3563;SDS011;1796;52.388;13.096;2023-02-24T06:26:03;16.60;;;1.33;;
3563;SDS011;1796;52.388;13.096;2023-02-24T06:28:38;10.40;;;2.30;;
3563;SDS011;1796;52.388;13.096;2023-02-24T06:31:07;6.10;;;1.90;;
3563;SDS011;1796;52.388;13.096;2023-02-24T06:33:35;2.60;;;1.20;;
3563;SDS011;1796;52.388;13.096;2023-02-24T06:36:02;10.30;;;1.57;;
3563;SDS011;1796;52.388;13.096;2023-02-24T06:38:30;6.00;;;1.33;;
3563;SDS011;1796;52.388;13.096;2023-02-24T06:40:58;7.50;;;1.43;;
3563;SDS011;1796;52.388;13.096;2023-02-24T06:43:28;6.43;;;1.87;;
3563;SDS011;1796;52.388;13.096;2023-02-24T06:45:56;5.50;;;1.90;;
3563;SDS011;1796;52.388;13.096;2023-02-24T06:48:23;2.83;;;1.30;;
3563;SDS011;1796;52.388;13.096;2023-02-24T06:50:52;9.83;;;2.00;;
3563;SDS011;1796;52.388;13.096;2023-02-24T06:53:20;7.20;;;1.57;;
3563;SDS011;1796;52.388;13.096;2023-02-24T06:55:48;2.73;;;1.53;;
3563;SDS011;1796;52.388;13.096;2023-02-24T06:58:15;5.83;;;1.53;;
3563;SDS011;1796;52.388;13.096;2023-02-24T07:00:43;11.33;;;2.40;;
3563;SDS011;1796;52.388;13.096;2023-02-24T07:03:23;10.13;;;2.63;;
3563;SDS011;1796;52.388;13.096;2023-02-24T07:06:03;17.00;;;2.30;;
3563;SDS011;1796;52.388;13.096;2023-02-24T07:08:44;12.43;;;2.33;;
3563;SDS011;1796;52.388;13.096;2023-02-24T07:11:12;13.57;;;2.30;;
3563;SDS011;1796;52.388;13.096;2023-02-24T07:13:41;6.07;;;1.70;;
3563;SDS011;1796;52.388;13.096;2023-02-24T07:16:11;12.83;;;1.50;;
3563;SDS011;1796;52.388;13.096;2023-02-24T07:18:41;10.57;;;2.00;;
3563;SDS011;1796;52.388;13.096;2023-02-24T07:21:12;7.50;;;2.03;;
3563;SDS011;1796;52.388;13.096;2023-02-24T07:23:41;4.97;;;1.70;;
3563;SDS011;1796;52.388;13.096;2023-02-24T07:26:09;7.40;;;2.07;;
3563;SDS011;1796;52.388;13.096;2023-02-24T07:28:38;13.07;;;2.47;;
3563;SDS011;1796;52.388;13.096;2023-02-24T07:31:06;8.17;;;1.83;;
3563;SDS011;1796;52.388;13.096;2023-02-24T07:33:34;9.40;;;2.00;;
3563;SDS011;1796;52.388;13.096;2023-02-24T07:36:04;14.80;;;2.47;;
3563;SDS011;1796;52.388;13.096;2023-02-24T07:38:34;5.83;;;1.83;;
3563;SDS011;1796;52.388;13.096;2023-02-24T07:41:01;8.00;;;1.80;;
3563;SDS011;1796;52.388;13.096;2023-02-24T07:43:30;4.93;;;1.40;;
3563;SDS011;1796;52.388;13.096;2023-02-24T07:46:03;12.00;;;1.90;;
3563;SDS011;1796;52.388;13.096;2023-02-24T07:48:31;7.60;;;1.67;;
3563;SDS011;1796;52.388;13.096;2023-02-24T07:50:59;15.23;;;2.03;;
3563;SDS011;1796;52.388;13.096;2023-02-24T07:53:27;4.97;;;1.70;;
3563;SDS011;1796;52.388;13.096;2023-02-24T07:55:54;3.20;;;1.57;;
3563;SDS011;1796;52.388;13.096;2023-02-24T07:58:20;7.27;;;1.57;;
3563;SDS011;1796;52.388;13.096;2023-02-24T08:00:48;13.13;;;2.07;;
3563;SDS011;1796;52.388;13.096;2023-02-24T08:03:24;7.60;;;1.60;;
3563;SDS011;1796;52.388;13.096;2023-02-24T08:05:53;6.07;;;1.57;;
3563;SDS011;1796;52.388;13.096;2023-02-24T08:08:24;4.93;;;1.37;;
3563;SDS011;1796;52.388;13.096;2023-02-24T08:10:53;6.70;;;2.00;;
3563;SDS011;1796;52.388;13.096;2023-02-24T08:13:28;3.87;;;1.70;;
3563;SDS011;1796;52.388;13.096;2023-02-24T08:16:03;2.17;;;1.53;;
3563;SDS011;1796;52.388;13.096;2023-02-24T08:18:31;4.97;;;1.20;;
3563;SDS011;1796;52.388;13.096;2023-02-24T08:21:01;6.00;;;2.37;;
3563;SDS011;1796;52.388;13.096;2023-02-24T08:23:28;6.33;;;2.00;;
3563;SDS011;1796;52.388;13.096;2023-02-24T08:26:02;10.97;;;2.30;;
3563;SDS011;1796;52.388;13.096;2023-02-24T08:28:36;7.63;;;2.00;;
3563;SDS011;1796;52.388;13.096;2023-02-24T08:31:04;5.57;;;1.60;;
3563;SDS011;1796;52.388;13.096;2023-02-24T08:33:31;6.00;;;1.97;;
3563;SDS011;1796;52.388;13.096;2023-02-24T08:36:01;9.10;;;2.00;;
3563;SDS011;1796;52.388;13.096;2023-02-24T08:38:29;8.87;;;1.83;;
3563;SDS011;1796;52.388;13.096;2023-02-24T08:41:14;8.83;;;1.83;;
3563;SDS011;1796;52.388;13.096;2023-02-24T08:43:44;3.87;;;1.90;;
3563;SDS011;1796;52.388;13.096;2023-02-24T08:46:16;7.07;;;2.57;;
3563;SDS011;1796;52.388;13.096;2023-02-24T08:48:46;5.17;;;2.10;;
3563;SDS011;1796;52.388;13.096;2023-02-24T08:51:15;8.97;;;2.97;;
3563;SDS011;1796;52.388;13.096;2023-02-24T08:53:46;6.87;;;2.10;;
3563;SDS011;1796;52.388;13.096;2023-02-24T08:56:18;13.30;;;2.50;;
3563;SDS011;1796;52.388;13.096;2023-02-24T08:58:49;5.80;;;1.63;;
3563;SDS011;1796;52.388;13.096;2023-02-24T09:01:22;21.57;;;2.33;;
3563;SDS011;1796;52.388;13.096;2023-02-24T09:03:51;10.50;;;1.97;;
3563;SDS011;1796;52.388;13.096;2023-02-24T09:06:23;6.73;;;2.03;;
3563;SDS011;1796;52.388;13.096;2023-02-24T09:08:52;3.70;;;1.80;;
3563;SDS011;1796;52.388;13.096;2023-02-24T09:11:42;2.93;;;1.63;;
3563;SDS011;1796;52.388;13.096;2023-02-24T09:14:11;9.30;;;1.67;;
3563;SDS011;1796;52.388;13.096;2023-02-24T09:16:42;10.37;;;2.10;;
3563;SDS011;1796;52.388;13.096;2023-02-24T09:19:29;4.20;;;2.03;;
3563;SDS011;1796;52.388;13.096;2023-02-24T09:22:27;3.20;;;1.40;;
3563;SDS011;1796;52.388;13.096;2023-02-24T09:25:19;5.27;;;1.70;;
3563;SDS011;1796;52.388;13.096;2023-02-24T09:27:50;4.70;;;1.90;;
3563;SDS011;1796;52.388;13.096;2023-02-24T09:30:20;7.80;;;2.47;;
3563;SDS011;1796;52.388;13.096;2023-02-24T09:33:00;2.20;;;1.67;;
3563;SDS011;1796;52.388;13.096;2023-02-24T09:35:30;8.83;;;2.10;;
3563;SDS011;1796;52.388;13.096;2023-02-24T09:38:00;9.63;;;1.97;;
3563;SDS011;1796;52.388;13.096;2023-02-24T09:40:30;5.97;;;2.03;;
3563;SDS011;1796;52.388;13.096;2023-02-24T09:43:07;4.47;;;1.70;;
3563;SDS011;1796;52.388;13.096;2023-02-24T09:45:43;4.90;;;1.87;;
3563;SDS011;1796;52.388;13.096;2023-02-24T09:48:20;11.00;;;1.97;;
3563;SDS011;1796;52.388;13.096;2023-02-24T09:50:56;17.20;;;1.97;;
3563;SDS011;1796;52.388;13.096;2023-02-24T09:53:28;6.77;;;2.03;;
3563;SDS011;1796;52.388;13.096;2023-02-24T09:56:04;1.30;;;1.17;;
3563;SDS011;1796;52.388;13.096;2023-02-24T09:58:48;2.83;;;1.67;;
3563;SDS011;1796;52.388;13.096;2023-02-24T10:01:24;6.50;;;1.40;;
3563;SDS011;1796;52.388;13.096;2023-02-24T10:04:12;3.67;;;1.37;;
3563;SDS011;1796;52.388;13.096;2023-02-24T10:06:56;10.47;;;2.00;;
3563;SDS011;1796;52.388;13.096;2023-02-24T10:09:27;8.13;;;1.87;;
3563;SDS011;1796;52.388;13.096;2023-02-24T10:12:00;3.20;;;1.20;;
3563;SDS011;1796;52.388;13.096;2023-02-24T10:14:35;5.03;;;1.63;;
3563;SDS011;1796;52.388;13.096;2023-02-24T10:17:09;3.43;;;1.10;;
3563;SDS011;1796;52.388;13.096;2023-02-24T10:19:55;10.30;;;2.90;;
3563;SDS011;1796;52.388;13.096;2023-02-24T10:22:37;28.60;;;19.50;;
3563;SDS011;1796;52.388;13.096;2023-02-24T10:25:22;30.50;;;11.73;;
3563;SDS011;1796;52.388;13.096;2023-02-24T10:28:02;44.67;;;21.13;;
3563;SDS011;1796;52.388;13.096;2023-02-24T10:30:40;100.10;;;52.43;;
3563;SDS011;1796;52.388;13.096;2023-02-24T10:33:23;98.07;;;50.47;;
3563;SDS011;1796;52.388;13.096;2023-02-24T10:36:05;16.27;;;8.47;;
3563;SDS011;1796;52.388;13.096;2023-02-24T10:38:35;13.13;;;7.53;;
3563;SDS011;1796;52.388;13.096;2023-02-24T10:41:07;12.63;;;6.83;;
3563;SDS011;1796;52.388;13.096;2023-02-24T10:43:35;5.43;;;3.13;;
3563;SDS011;1796;52.388;13.096;2023-02-24T10:46:19;64.40;;;36.27;;
3563;SDS011;1796;52.388;13.096;2023-02-24T10:48:50;37.57;;;18.83;;
3563;SDS011;1796;52.388;13.096;2023-02-24T10:51:27;36.77;;;18.53;;
3563;SDS011;1796;52.388;13.096;2023-02-24T10:54:06;40.17;;;19.53;;
3563;SDS011;1796;52.388;13.096;2023-02-24T10:56:55;17.43;;;7.57;;
3563;SDS011;1796;52.388;13.096;2023-02-24T10:59:41;35.23;;;17.30;;
3563;SDS011;1796;52.388;13.096;2023-02-24T11:02:47;11.40;;;3.30;;
3563;SDS011;1796;52.388;13.096;2023-02-24T11:05:33;31.93;;;14.57;;
3563;SDS011;1796;52.388;13.096;2023-02-24T11:08:29;28.13;;;12.10;;
3563;SDS011;1796;52.388;13.096;2023-02-24T11:11:08;39.13;;;17.80;;
3563;SDS011;1796;52.388;13.096;2023-02-24T11:13:49;31.77;;;12.43;;
3563;SDS011;1796;52.388;13.096;2023-02-24T11:16:45;55.77;;;21.63;;
3563;SDS011;1796;52.388;13.096;2023-02-24T11:19:33;32.10;;;13.83;;
3563;SDS011;1796;52.388;13.096;2023-02-24T11:22:08;24.47;;;10.23;;
3563;SDS011;1796;52.388;13.096;2023-02-24T11:24:38;33.37;;;15.33;;
3563;SDS011;1796;52.388;13.096;2023-02-24T11:27:05;22.80;;;9.63;;
3563;SDS011;1796;52.388;13.096;2023-02-24T11:29:36;51.77;;;21.27;;
3563;SDS011;1796;52.388;13.096;2023-02-24T11:32:21;30.30;;;11.60;;
3563;SDS011;1796;52.388;13.096;2023-02-24T11:35:00;31.07;;;11.93;;
3563;SDS011;1796;52.388;13.096;2023-02-24T11:37:32;22.90;;;10.13;;
3563;SDS011;1796;52.388;13.096;2023-02-24T11:40:05;215.10;;;83.03;;
3563;SDS011;1796;52.388;13.096;2023-02-24T11:42:38;35.57;;;13.77;;
3563;SDS011;1796;52.388;13.096;2023-02-24T11:45:11;41.13;;;17.00;;
3563;SDS011;1796;52.388;13.096;2023-02-24T11:47:47;76.80;;;28.17;;
3563;SDS011;1796;52.388;13.096;2023-02-24T11:50:25;36.40;;;15.00;;
3563;SDS011;1796;52.388;13.096;2023-02-24T11:53:02;61.77;;;24.13;;
3563;SDS011;1796;52.388;13.096;2023-02-24T11:55:33;10.00;;;5.80;;
3563;SDS011;1796;52.388;13.096;2023-02-24T11:58:08;43.00;;;16.90;;
3563;SDS011;1796;52.388;13.096;2023-02-24T12:00:40;26.77;;;10.10;;
3563;SDS011;1796;52.388;13.096;2023-02-24T12:03:15;20.27;;;7.77;;
3563;SDS011;1796;52.388;13.096;2023-02-24T12:05:51;6.83;;;4.37;;
3563;SDS011;1796;52.388;13.096;2023-02-24T12:08:23;13.40;;;6.53;;
3563;SDS011;1796;52.388;13.096;2023-02-24T12:10:55;11.20;;;5.40;;
3563;SDS011;1796;52.388;13.096;2023-02-24T12:13:29;11.23;;;6.40;;
3563;SDS011;1796;52.388;13.096;2023-02-24T12:16:03;16.30;;;5.77;;
3563;SDS011;1796;52.388;13.096;2023-02-24T12:18:36;11.90;;;7.63;;
3563;SDS011;1796;52.388;13.096;2023-02-24T12:21:08;5.60;;;4.43;;
3563;SDS011;1796;52.388;13.096;2023-02-24T12:23:41;4.07;;;3.30;;
3563;SDS011;1796;52.388;13.096;2023-02-24T12:26:17;7.37;;;2.40;;
3563;SDS011;1796;52.388;13.096;2023-02-24T12:28:52;6.70;;;3.10;;
3563;SDS011;1796;52.388;13.096;2023-02-24T12:31:35;9.90;;;2.70;;
3563;SDS011;1796;52.388;13.096;2023-02-24T12:34:10;3.63;;;1.93;;
3563;SDS011;1796;52.388;13.096;2023-02-24T12:36:47;8.83;;;3.60;;
3563;SDS011;1796;52.388;13.096;2023-02-24T12:39:43;8.87;;;3.57;;
3563;SDS011;1796;52.388;13.096;2023-02-24T12:42:19;3.03;;;2.60;;
3563;SDS011;1796;52.388;13.096;2023-02-24T12:44:56;3.27;;;2.80;;
3563;SDS011;1796;52.388;13.096;2023-02-24T12:47:31;2.50;;;2.30;;
3563;SDS011;1796;52.388;13.096;2023-02-24T12:50:18;8.33;;;3.07;;
3563;SDS011;1796;52.388;13.096;2023-02-24T12:52:59;3.33;;;2.80;;
3563;SDS011;1796;52.388;13.096;2023-02-24T12:55:34;3.50;;;2.13;;
3563;SDS011;1796;52.388;13.096;2023-02-24T12:58:09;2.77;;;2.23;;
3563;SDS011;1796;52.388;13.096;2023-02-24T13:00:41;2.70;;;1.90;;
3563;SDS011;1796;52.388;13.096;2023-02-24T13:03:28;3.80;;;2.20;;
3563;SDS011;1796;52.388;13.096;2023-02-24T13:06:15;4.50;;;2.20;;
3563;SDS011;1796;52.388;13.096;2023-02-24T13:08:52;2.77;;;1.80;;
3563;SDS011;1796;52.388;13.096;2023-02-24T13:11:28;4.30;;;2.10;;
3563;SDS011;1796;52.388;13.096;2023-02-24T13:14:05;6.97;;;2.30;;
3563;SDS011;1796;52.388;13.096;2023-02-24T13:16:38;3.97;;;1.60;;
3563;SDS011;1796;52.388;13.096;2023-02-24T13:19:06;9.20;;;2.90;;
3563;SDS011;1796;52.388;13.096;2023-02-24T13:21:53;5.63;;;2.93;;
3563;SDS011;1796;52.388;13.096;2023-02-24T13:24:22;2.17;;;1.67;;
3563;SDS011;1796;52.388;13.096;2023-02-24T13:26:51;2.73;;;1.40;;
3563;SDS011;1796;52.388;13.096;2023-02-24T13:29:40;4.17;;;2.07;;
3563;SDS011;1796;52.388;13.096;2023-02-24T13:32:27;7.07;;;2.43;;
3563;SDS011;1796;52.388;13.096;2023-02-24T13:34:57;3.73;;;1.70;;
3563;SDS011;1796;52.388;13.096;2023-02-24T13:37:27;3.80;;;1.80;;
3563;SDS011;1796;52.388;13.096;2023-02-24T13:39:58;3.60;;;1.40;;
3563;SDS011;1796;52.388;13.096;2023-02-24T13:42:26;3.17;;;1.70;;
3563;SDS011;1796;52.388;13.096;2023-02-24T13:45:00;2.30;;;1.90;;
3563;SDS011;1796;52.388;13.096;2023-02-24T13:47:36;4.10;;;2.40;;
3563;SDS011;1796;52.388;13.096;2023-02-24T13:50:20;2.10;;;1.80;;
3563;SDS011;1796;52.388;13.096;2023-02-24T13:56:00;4.43;;;2.33;;
3563;SDS011;1796;52.388;13.096;2023-02-24T13:58:42;3.43;;;2.20;;
3563;SDS011;1796;52.388;13.096;2023-02-24T14:01:17;3.67;;;2.03;;
3563;SDS011;1796;52.388;13.096;2023-02-24T14:03:46;5.60;;;2.67;;
3563;SDS011;1796;52.388;13.096;2023-02-24T14:06:28;6.73;;;2.37;;
3563;SDS011;1796;52.388;13.096;2023-02-24T14:08:56;4.50;;;2.23;;
3563;SDS011;1796;52.388;13.096;2023-02-24T14:11:27;2.90;;;1.70;;
3563;SDS011;1796;52.388;13.096;2023-02-24T14:13:58;7.20;;;1.73;;
3563;SDS011;1796;52.388;13.096;2023-02-24T14:16:25;4.77;;;1.87;;
3563;SDS011;1796;52.388;13.096;2023-02-24T14:18:55;3.20;;;1.50;;
3563;SDS011;1796;52.388;13.096;2023-02-24T14:21:24;2.67;;;1.50;;
3563;SDS011;1796;52.388;13.096;2023-02-24T14:23:56;2.00;;;1.50;;
3563;SDS011;1796;52.388;13.096;2023-02-24T14:26:27;2.43;;;1.50;;
3563;SDS011;1796;52.388;13.096;2023-02-24T14:28:58;2.80;;;1.50;;
3563;SDS011;1796;52.388;13.096;2023-02-24T14:31:26;4.30;;;1.60;;
3563;SDS011;1796;52.388;13.096;2023-02-24T14:33:55;1.60;;;1.60;;
3563;SDS011;1796;52.388;13.096;2023-02-24T14:36:24;2.97;;;1.73;;
3563;SDS011;1796;52.388;13.096;2023-02-24T14:39:01;2.47;;;1.23;;
3563;SDS011;1796;52.388;13.096;2023-02-24T14:41:34;1.70;;;1.30;;
3563;SDS011;1796;52.388;13.096;2023-02-24T14:44:07;2.77;;;2.00;;
3563;SDS011;1796;52.388;13.096;2023-02-24T14:46:46;1.93;;;1.40;;
3563;SDS011;1796;52.388;13.096;2023-02-24T14:49:16;2.40;;;1.60;;
3563;SDS011;1796;52.388;13.096;2023-02-24T14:51:46;3.77;;;1.20;;
3563;SDS011;1796;52.388;13.096;2023-02-24T14:54:17;2.03;;;1.60;;
3563;SDS011;1796;52.388;13.096;2023-02-24T14:56:48;2.70;;;1.63;;
3563;SDS011;1796;52.388;13.096;2023-02-24T14:59:16;1.80;;;1.40;;
3563;SDS011;1796;52.388;13.096;2023-02-24T15:01:49;1.00;;;1.00;;
3563;SDS011;1796;52.388;13.096;2023-02-24T15:04:22;1.37;;;1.30;;
3563;SDS011;1796;52.388;13.096;2023-02-24T15:06:56;1.67;;;1.50;;
3563;SDS011;1796;52.388;13.096;2023-02-24T15:09:24;2.70;;;1.47;;
3563;SDS011;1796;52.388;13.096;2023-02-24T15:12:00;1.17;;;1.17;;
3563;SDS011;1796;52.388;13.096;2023-02-24T15:14:35;1.30;;;1.30;;
3563;SDS011;1796;52.388;13.096;2023-02-24T15:17:07;1.67;;;1.57;;
3563;SDS011;1796;52.388;13.096;2023-02-24T15:19:37;1.40;;;1.30;;
3563;SDS011;1796;52.388;13.096;2023-02-24T15:22:23;8.03;;;2.07;;
3563;SDS011;1796;52.388;13.096;2023-02-24T15:24:52;2.50;;;1.60;;
3563;SDS011;1796;52.388;13.096;2023-02-24T15:27:26;1.70;;;1.60;;
3563;SDS011;1796;52.388;13.096;2023-02-24T15:29:57;1.70;;;1.70;;
3563;SDS011;1796;52.388;13.096;2023-02-24T15:32:27;1.60;;;1.60;;
3563;SDS011;1796;52.388;13.096;2023-02-24T15:34:55;2.70;;;2.00;;